sensor_id;sensor_type;location;lat;lon;timestamp;temperature;humidity
1626;DHT22;806;48.770;9.156;2023-04-05T00:00:21;3.70;99.90
1626;DHT22;806;48.770;9.156;2023-04-05T00:02:48;3.60;99.90
1626;DHT22;806;48.770;9.156;2023-04-05T00:05:15;3.70;99.90
1626;DHT22;806;48.770;9.156;2023-04-05T00:07:56;3.70;99.90
1626;DHT22;806;48.770;9.156;2023-04-05T00:10:24;3.70;99.90
1626;DHT22;806;48.770;9.156;2023-04-05T00:12:51;3.70;99.90
1626;DHT22;806;48.770;9.156;2023-04-05T00:15:18;3.70;99.90
1626;DHT22;806;48.770;9.156;2023-04-05T00:17:45;3.70;99.90
1626;DHT22;806;48.770;9.156;2023-04-05T00:20:12;3.80;99.90
1626;DHT22;806;48.770;9.156;2023-04-05T00:22:40;3.70;99.90
1626;DHT22;806;48.770;9.156;2023-04-05T00:25:11;3.70;99.90
1626;DHT22;806;48.770;9.156;2023-04-05T00:27:38;3.70;99.90
1626;DHT22;806;48.770;9.156;2023-04-05T00:30:06;3.70;99.90
1626;DHT22;806;48.770;9.156;2023-04-05T00:32:33;3.70;99.90
1626;DHT22;806;48.770;9.156;2023-04-05T00:35:00;3.70;99.90
1626;DHT22;806;48.770;9.156;2023-04-05T00:37:27;3.70;99.90
1626;DHT22;806;48.770;9.156;2023-04-05T00:39:54;3.60;99.90
1626;DHT22;806;48.770;9.156;2023-04-05T00:42:23;3.60;99.90
1626;DHT22;806;48.770;9.156;2023-04-05T00:44:50;3.60;99.90
1626;DHT22;806;48.770;9.156;2023-04-05T00:47:17;3.60;99.90
1626;DHT22;806;48.770;9.156;2023-04-05T00:49:45;3.60;99.90
1626;DHT22;806;48.770;9.156;2023-04-05T00:52:13;3.60;99.90
1626;DHT22;806;48.770;9.156;2023-04-05T00:54:41;3.50;99.90
1626;DHT22;806;48.770;9.156;2023-04-05T00:57:08;3.60;99.90
1626;DHT22;806;48.770;9.156;2023-04-05T00:59:37;3.50;99.90
1626;DHT22;806;48.770;9.156;2023-04-05T01:02:09;3.40;99.90
1626;DHT22;806;48.770;9.156;2023-04-05T01:04:43;3.30;99.90
1626;DHT22;806;48.770;9.156;2023-04-05T01:07:24;3.20;99.90
1626;DHT22;806;48.770;9.156;2023-04-05T01:09:56;3.20;99.90
1626;DHT22;806;48.770;9.156;2023-04-05T01:12:26;3.20;99.90
1626;DHT22;806;48.770;9.156;2023-04-05T01:14:55;3.10;99.90
1626;DHT22;806;48.770;9.156;2023-04-05T01:17:24;3.10;99.90
1626;DHT22;806;48.770;9.156;2023-04-05T01:19:54;3.10;99.90
1626;DHT22;806;48.770;9.156;2023-04-05T01:28:48;3.00;99.90
1626;DHT22;806;48.770;9.156;2023-04-05T01:31:28;3.00;99.90
1626;DHT22;806;48.770;9.156;2023-04-05T01:34:01;3.10;99.90
1626;DHT22;806;48.770;9.156;2023-04-05T01:36:32;3.10;99.90
1626;DHT22;806;48.770;9.156;2023-04-05T01:39:01;3.10;99.90
1626;DHT22;806;48.770;9.156;2023-04-05T01:41:30;3.10;99.90
1626;DHT22;806;48.770;9.156;2023-04-05T01:43:57;3.10;99.90
1626;DHT22;806;48.770;9.156;2023-04-05T01:46:26;3.10;99.90
1626;DHT22;806;48.770;9.156;2023-04-05T01:48:53;3.00;99.90
1626;DHT22;806;48.770;9.156;2023-04-05T01:51:20;3.00;99.90
1626;DHT22;806;48.770;9.156;2023-04-05T01:53:47;2.90;99.90
1626;DHT22;806;48.770;9.156;2023-04-05T01:56:14;3.00;99.90
1626;DHT22;806;48.770;9.156;2023-04-05T01:58:41;2.90;99.90
1626;DHT22;806;48.770;9.156;2023-04-05T02:01:08;2.90;99.90
1626;DHT22;806;48.770;9.156;2023-04-05T02:03:37;2.90;99.90
1626;DHT22;806;48.770;9.156;2023-04-05T02:06:05;3.00;99.90
1626;DHT22;806;48.770;9.156;2023-04-05T02:08:32;3.20;99.90
1626;DHT22;806;48.770;9.156;2023-04-05T02:10:59;3.10;99.90
1626;DHT22;806;48.770;9.156;2023-04-05T02:13:26;3.10;99.90
1626;DHT22;806;48.770;9.156;2023-04-05T02:15:53;3.00;99.90
1626;DHT22;806;48.770;9.156;2023-04-05T02:18:20;2.90;99.90
1626;DHT22;806;48.770;9.156;2023-04-05T02:21:00;2.90;99.90
1626;DHT22;806;48.770;9.156;2023-04-05T02:23:27;2.70;99.90
1626;DHT22;806;48.770;9.156;2023-04-05T02:25:55;2.70;99.90
1626;DHT22;806;48.770;9.156;2023-04-05T02:28:22;2.70;99.90
1626;DHT22;806;48.770;9.156;2023-04-05T02:30:50;2.70;99.90
1626;DHT22;806;48.770;9.156;2023-04-05T02:33:17;2.70;99.90
1626;DHT22;806;48.770;9.156;2023-04-05T02:35:45;2.70;99.90
1626;DHT22;806;48.770;9.156;2023-04-05T02:38:15;2.80;99.90
1626;DHT22;806;48.770;9.156;2023-04-05T02:40:42;2.80;99.90
1626;DHT22;806;48.770;9.156;2023-04-05T02:43:11;2.80;99.90
1626;DHT22;806;48.770;9.156;2023-04-05T02:45:38;2.80;99.90
1626;DHT22;806;48.770;9.156;2023-04-05T02:48:05;2.70;99.90
1626;DHT22;806;48.770;9.156;2023-04-05T02:50:33;2.60;99.90
1626;DHT22;806;48.770;9.156;2023-04-05T02:53:00;2.50;99.90
1626;DHT22;806;48.770;9.156;2023-04-05T02:55:29;2.50;99.90
1626;DHT22;806;48.770;9.156;2023-04-05T02:57:58;2.60;99.90
1626;DHT22;806;48.770;9.156;2023-04-05T03:00:26;2.60;99.90
1626;DHT22;806;48.770;9.156;2023-04-05T03:02:53;2.50;99.90
1626;DHT22;806;48.770;9.156;2023-04-05T03:05:21;2.50;99.90
1626;DHT22;806;48.770;9.156;2023-04-05T03:07:48;2.40;99.90
1626;DHT22;806;48.770;9.156;2023-04-05T03:10:17;2.40;99.90
1626;DHT22;806;48.770;9.156;2023-04-05T03:12:48;2.40;99.90
1626;DHT22;806;48.770;9.156;2023-04-05T03:15:16;2.40;99.90
1626;DHT22;806;48.770;9.156;2023-04-05T03:17:43;2.40;99.90
1626;DHT22;806;48.770;9.156;2023-04-05T03:20:11;2.30;99.90
1626;DHT22;806;48.770;9.156;2023-04-05T03:22:39;2.30;99.90
1626;DHT22;806;48.770;9.156;2023-04-05T03:25:06;2.30;99.90
1626;DHT22;806;48.770;9.156;2023-04-05T03:27:34;2.30;99.90
1626;DHT22;806;48.770;9.156;2023-04-05T03:30:03;2.20;99.90
1626;DHT22;806;48.770;9.156;2023-04-05T03:32:30;2.10;99.90
1626;DHT22;806;48.770;9.156;2023-04-05T03:34:57;2.00;99.90
1626;DHT22;806;48.770;9.156;2023-04-05T03:37:24;2.10;99.90
1626;DHT22;806;48.770;9.156;2023-04-05T03:39:51;2.10;99.90
1626;DHT22;806;48.770;9.156;2023-04-05T03:42:18;2.10;99.90
1626;DHT22;806;48.770;9.156;2023-04-05T03:44:49;2.10;99.90
1626;DHT22;806;48.770;9.156;2023-04-05T03:47:17;2.10;99.90
1626;DHT22;806;48.770;9.156;2023-04-05T03:49:44;2.10;99.90
1626;DHT22;806;48.770;9.156;2023-04-05T03:52:11;2.10;99.90
1626;DHT22;806;48.770;9.156;2023-04-05T03:54:38;2.00;99.90
1626;DHT22;806;48.770;9.156;2023-04-05T03:57:06;2.00;99.90
1626;DHT22;806;48.770;9.156;2023-04-05T03:59:33;2.00;99.90
1626;DHT22;806;48.770;9.156;2023-04-05T04:02:01;2.00;99.90
1626;DHT22;806;48.770;9.156;2023-04-05T04:04:29;1.90;99.90
1626;DHT22;806;48.770;9.156;2023-04-05T04:06:57;1.90;99.90
1626;DHT22;806;48.770;9.156;2023-04-05T04:09:24;1.90;99.90
1626;DHT22;806;48.770;9.156;2023-04-05T04:11:52;1.80;99.90
1626;DHT22;806;48.770;9.156;2023-04-05T04:14:19;1.90;99.90
1626;DHT22;806;48.770;9.156;2023-04-05T04:16:46;1.80;99.90
1626;DHT22;806;48.770;9.156;2023-04-05T04:19:13;1.80;99.90
1626;DHT22;806;48.770;9.156;2023-04-05T04:21:43;1.80;99.90
1626;DHT22;806;48.770;9.156;2023-04-05T04:24:15;1.80;99.90
1626;DHT22;806;48.770;9.156;2023-04-05T04:26:43;1.90;99.90
1626;DHT22;806;48.770;9.156;2023-04-05T04:29:10;1.80;99.90
1626;DHT22;806;48.770;9.156;2023-04-05T04:31:41;1.70;99.90
1626;DHT22;806;48.770;9.156;2023-04-05T04:34:10;1.80;99.90
1626;DHT22;806;48.770;9.156;2023-04-05T04:36:38;1.80;99.90
1626;DHT22;806;48.770;9.156;2023-04-05T04:39:09;1.70;99.90
1626;DHT22;806;48.770;9.156;2023-04-05T04:41:38;1.70;99.90
1626;DHT22;806;48.770;9.156;2023-04-05T04:44:11;1.60;99.90
1626;DHT22;806;48.770;9.156;2023-04-05T04:46:39;1.60;99.90
1626;DHT22;806;48.770;9.156;2023-04-05T04:49:08;1.70;99.90
1626;DHT22;806;48.770;9.156;2023-04-05T04:51:37;1.60;99.90
1626;DHT22;806;48.770;9.156;2023-04-05T04:54:04;1.60;99.90
1626;DHT22;806;48.770;9.156;2023-04-05T04:56:33;1.60;99.90
1626;DHT22;806;48.770;9.156;2023-04-05T04:59:00;1.60;99.90
1626;DHT22;806;48.770;9.156;2023-04-05T05:01:27;1.60;99.90
1626;DHT22;806;48.770;9.156;2023-04-05T05:03:54;1.70;99.90
1626;DHT22;806;48.770;9.156;2023-04-05T05:06:21;1.70;99.90
1626;DHT22;806;48.770;9.156;2023-04-05T05:08:49;1.70;99.90
1626;DHT22;806;48.770;9.156;2023-04-05T05:11:16;1.70;99.90
1626;DHT22;806;48.770;9.156;2023-04-05T05:13:45;1.80;99.90
1626;DHT22;806;48.770;9.156;2023-04-05T05:16:12;1.80;99.90
1626;DHT22;806;48.770;9.156;2023-04-05T05:18:39;1.90;99.90
1626;DHT22;806;48.770;9.156;2023-04-05T05:21:07;1.90;99.90
1626;DHT22;806;48.770;9.156;2023-04-05T05:23:34;2.20;99.90
1626;DHT22;806;48.770;9.156;2023-04-05T05:26:01;2.90;99.90
1626;DHT22;806;48.770;9.156;2023-04-05T05:28:28;3.10;99.90
1626;DHT22;806;48.770;9.156;2023-04-05T05:30:57;3.30;99.90
1626;DHT22;806;48.770;9.156;2023-04-05T05:33:24;3.00;99.90
1626;DHT22;806;48.770;9.156;2023-04-05T05:35:51;2.60;99.90
1626;DHT22;806;48.770;9.156;2023-04-05T05:38:18;2.30;99.90
1626;DHT22;806;48.770;9.156;2023-04-05T05:40:46;2.00;99.90
1626;DHT22;806;48.770;9.156;2023-04-05T05:43:13;1.80;99.90
1626;DHT22;806;48.770;9.156;2023-04-05T05:45:41;1.60;99.90
1626;DHT22;806;48.770;9.156;2023-04-05T05:48:09;1.40;99.90
1626;DHT22;806;48.770;9.156;2023-04-05T05:50:36;1.40;99.90
1626;DHT22;806;48.770;9.156;2023-04-05T05:53:04;1.40;99.90
1626;DHT22;806;48.770;9.156;2023-04-05T05:55:31;1.40;99.90
1626;DHT22;806;48.770;9.156;2023-04-05T05:57:58;1.40;99.90
1626;DHT22;806;48.770;9.156;2023-04-05T06:00:25;1.40;99.90
1626;DHT22;806;48.770;9.156;2023-04-05T06:02:52;1.50;99.90
1626;DHT22;806;48.770;9.156;2023-04-05T06:05:20;1.50;99.90
1626;DHT22;806;48.770;9.156;2023-04-05T06:07:48;1.60;99.90
1626;DHT22;806;48.770;9.156;2023-04-05T06:10:15;1.60;99.90
1626;DHT22;806;48.770;9.156;2023-04-05T06:12:42;1.70;99.90
1626;DHT22;806;48.770;9.156;2023-04-05T06:15:10;1.80;99.90
1626;DHT22;806;48.770;9.156;2023-04-05T06:17:37;1.90;99.90
1626;DHT22;806;48.770;9.156;2023-04-05T06:20:08;2.00;99.90
1626;DHT22;806;48.770;9.156;2023-04-05T06:22:37;2.30;99.90
1626;DHT22;806;48.770;9.156;2023-04-05T06:25:06;2.40;99.90
1626;DHT22;806;48.770;9.156;2023-04-05T06:27:34;2.60;99.90
1626;DHT22;806;48.770;9.156;2023-04-05T06:30:01;2.60;99.90
1626;DHT22;806;48.770;9.156;2023-04-05T06:32:28;2.50;99.90
1626;DHT22;806;48.770;9.156;2023-04-05T06:34:56;2.50;99.90
1626;DHT22;806;48.770;9.156;2023-04-05T06:37:23;2.60;99.90
1626;DHT22;806;48.770;9.156;2023-04-05T06:39:51;2.70;99.90
1626;DHT22;806;48.770;9.156;2023-04-05T06:42:18;2.70;99.90
1626;DHT22;806;48.770;9.156;2023-04-05T06:44:45;2.90;99.90
1626;DHT22;806;48.770;9.156;2023-04-05T06:47:15;2.90;99.90
1626;DHT22;806;48.770;9.156;2023-04-05T06:49:42;3.00;99.90
1626;DHT22;806;48.770;9.156;2023-04-05T06:52:09;3.20;99.90
1626;DHT22;806;48.770;9.156;2023-04-05T06:54:37;3.40;99.90
1626;DHT22;806;48.770;9.156;2023-04-05T06:57:06;3.50;99.90
1626;DHT22;806;48.770;9.156;2023-04-05T06:59:33;3.60;99.90
1626;DHT22;806;48.770;9.156;2023-04-05T07:02:00;3.60;99.90
1626;DHT22;806;48.770;9.156;2023-04-05T07:04:27;3.50;99.90
1626;DHT22;806;48.770;9.156;2023-04-05T07:06:59;3.70;99.90
1626;DHT22;806;48.770;9.156;2023-04-05T07:09:27;3.80;99.90
1626;DHT22;806;48.770;9.156;2023-04-05T07:11:57;3.80;99.90
1626;DHT22;806;48.770;9.156;2023-04-05T07:14:25;3.70;99.90
1626;DHT22;806;48.770;9.156;2023-04-05T07:16:52;3.60;99.90
1626;DHT22;806;48.770;9.156;2023-04-05T07:19:19;3.70;99.90
1626;DHT22;806;48.770;9.156;2023-04-05T07:21:47;3.90;99.90
1626;DHT22;806;48.770;9.156;2023-04-05T07:24:14;4.00;99.90
1626;DHT22;806;48.770;9.156;2023-04-05T07:26:41;4.10;99.90
1626;DHT22;806;48.770;9.156;2023-04-05T07:29:09;4.00;99.90
1626;DHT22;806;48.770;9.156;2023-04-05T07:31:38;4.00;99.90
1626;DHT22;806;48.770;9.156;2023-04-05T07:34:06;3.90;99.90
1626;DHT22;806;48.770;9.156;2023-04-05T07:36:33;3.90;99.90
1626;DHT22;806;48.770;9.156;2023-04-05T07:39:00;4.10;99.90
1626;DHT22;806;48.770;9.156;2023-04-05T07:41:28;4.40;99.90
1626;DHT22;806;48.770;9.156;2023-04-05T07:43:57;4.70;99.90
1626;DHT22;806;48.770;9.156;2023-04-05T07:46:25;4.80;99.90
1626;DHT22;806;48.770;9.156;2023-04-05T07:48:54;4.80;99.90
1626;DHT22;806;48.770;9.156;2023-04-05T07:51:21;4.90;99.90
1626;DHT22;806;48.770;9.156;2023-04-05T07:53:48;4.70;99.90
1626;DHT22;806;48.770;9.156;2023-04-05T07:56:15;4.50;99.90
1626;DHT22;806;48.770;9.156;2023-04-05T07:58:43;4.50;99.90
1626;DHT22;806;48.770;9.156;2023-04-05T08:01:10;4.60;99.90
1626;DHT22;806;48.770;9.156;2023-04-05T08:03:38;4.70;99.90
1626;DHT22;806;48.770;9.156;2023-04-05T08:06:11;4.90;99.90
1626;DHT22;806;48.770;9.156;2023-04-05T08:08:38;5.00;99.90
1626;DHT22;806;48.770;9.156;2023-04-05T08:11:06;5.10;99.90
1626;DHT22;806;48.770;9.156;2023-04-05T08:13:33;5.40;99.90
1626;DHT22;806;48.770;9.156;2023-04-05T08:16:01;5.40;99.90
1626;DHT22;806;48.770;9.156;2023-04-05T08:18:28;5.60;99.90
1626;DHT22;806;48.770;9.156;2023-04-05T08:20:57;5.60;99.90
1626;DHT22;806;48.770;9.156;2023-04-05T08:23:26;5.60;99.90
1626;DHT22;806;48.770;9.156;2023-04-05T08:25:53;5.70;99.90
1626;DHT22;806;48.770;9.156;2023-04-05T08:28:20;5.70;99.90
1626;DHT22;806;48.770;9.156;2023-04-05T08:30:52;5.80;99.90
1626;DHT22;806;48.770;9.156;2023-04-05T08:33:19;5.90;99.90
1626;DHT22;806;48.770;9.156;2023-04-05T08:35:47;6.10;99.90
1626;DHT22;806;48.770;9.156;2023-04-05T08:38:14;6.20;99.90
1626;DHT22;806;48.770;9.156;2023-04-05T08:40:43;6.20;99.90
1626;DHT22;806;48.770;9.156;2023-04-05T08:43:13;6.40;99.90
1626;DHT22;806;48.770;9.156;2023-04-05T08:45:46;6.60;99.90
1626;DHT22;806;48.770;9.156;2023-04-05T08:48:15;6.60;99.90
1626;DHT22;806;48.770;9.156;2023-04-05T08:50:48;6.70;99.90
1626;DHT22;806;48.770;9.156;2023-04-05T08:53:15;6.70;99.90
1626;DHT22;806;48.770;9.156;2023-04-05T08:55:46;6.60;99.90
1626;DHT22;806;48.770;9.156;2023-04-05T08:58:14;6.70;99.90
1626;DHT22;806;48.770;9.156;2023-04-05T09:00:42;6.70;99.90
1626;DHT22;806;48.770;9.156;2023-04-05T09:03:14;6.80;99.90
1626;DHT22;806;48.770;9.156;2023-04-05T09:05:45;6.80;99.90
1626;DHT22;806;48.770;9.156;2023-04-05T09:08:14;6.90;99.90
1626;DHT22;806;48.770;9.156;2023-04-05T09:10:43;6.80;98.30
1626;DHT22;806;48.770;9.156;2023-04-05T09:13:10;7.10;99.00
1626;DHT22;806;48.770;9.156;2023-04-05T09:15:38;7.40;97.70
1626;DHT22;806;48.770;9.156;2023-04-05T09:18:06;7.40;96.90
1626;DHT22;806;48.770;9.156;2023-04-05T09:20:33;7.70;96.00
1626;DHT22;806;48.770;9.156;2023-04-05T09:23:00;7.60;92.10
1626;DHT22;806;48.770;9.156;2023-04-05T09:25:35;7.40;93.30
1626;DHT22;806;48.770;9.156;2023-04-05T09:28:05;7.30;93.30
1626;DHT22;806;48.770;9.156;2023-04-05T09:30:33;7.50;93.30
1626;DHT22;806;48.770;9.156;2023-04-05T09:33:02;7.70;91.80
1626;DHT22;806;48.770;9.156;2023-04-05T09:35:30;7.90;90.00
1626;DHT22;806;48.770;9.156;2023-04-05T09:37:58;8.00;88.50
1626;DHT22;806;48.770;9.156;2023-04-05T09:40:40;8.00;85.30
1626;DHT22;806;48.770;9.156;2023-04-05T09:43:09;7.70;86.00
1626;DHT22;806;48.770;9.156;2023-04-05T09:45:38;7.70;87.80
1626;DHT22;806;48.770;9.156;2023-04-05T09:48:07;7.80;86.20
1626;DHT22;806;48.770;9.156;2023-04-05T09:50:35;8.00;85.10
1626;DHT22;806;48.770;9.156;2023-04-05T09:53:08;8.30;84.80
1626;DHT22;806;48.770;9.156;2023-04-05T09:55:40;8.40;80.00
1626;DHT22;806;48.770;9.156;2023-04-05T09:58:12;8.30;82.10
1626;DHT22;806;48.770;9.156;2023-04-05T10:00:47;8.50;82.00
1626;DHT22;806;48.770;9.156;2023-04-05T10:03:18;8.80;81.90
1626;DHT22;806;48.770;9.156;2023-04-05T10:05:45;8.60;77.80
1626;DHT22;806;48.770;9.156;2023-04-05T10:08:13;8.40;78.70
1626;DHT22;806;48.770;9.156;2023-04-05T10:10:46;8.10;78.90
1626;DHT22;806;48.770;9.156;2023-04-05T10:13:15;8.20;81.10
1626;DHT22;806;48.770;9.156;2023-04-05T10:15:46;8.70;80.00
1626;DHT22;806;48.770;9.156;2023-04-05T10:18:17;9.00;78.70
1626;DHT22;806;48.770;9.156;2023-04-05T10:20:49;8.90;73.80
1626;DHT22;806;48.770;9.156;2023-04-05T10:23:21;8.80;73.10
1626;DHT22;806;48.770;9.156;2023-04-05T10:25:59;8.90;76.40
1626;DHT22;806;48.770;9.156;2023-04-05T10:28:33;9.40;74.40
1626;DHT22;806;48.770;9.156;2023-04-05T10:31:09;9.80;71.30
1626;DHT22;806;48.770;9.156;2023-04-05T10:33:40;9.90;67.40
1626;DHT22;806;48.770;9.156;2023-04-05T10:36:16;9.80;66.70
1626;DHT22;806;48.770;9.156;2023-04-05T10:38:51;9.20;67.40
1626;DHT22;806;48.770;9.156;2023-04-05T10:41:25;9.50;69.00
1626;DHT22;806;48.770;9.156;2023-04-05T10:43:56;9.80;67.00
1626;DHT22;806;48.770;9.156;2023-04-05T10:46:23;9.70;70.30
1626;DHT22;806;48.770;9.156;2023-04-05T10:48:58;9.50;66.60
1626;DHT22;806;48.770;9.156;2023-04-05T10:51:26;10.00;65.80
1626;DHT22;806;48.770;9.156;2023-04-05T10:53:55;10.50;65.20
1626;DHT22;806;48.770;9.156;2023-04-05T10:56:24;10.50;63.00
1626;DHT22;806;48.770;9.156;2023-04-05T10:58:54;10.90;62.10
1626;DHT22;806;48.770;9.156;2023-04-05T11:01:22;11.20;62.60
1626;DHT22;806;48.770;9.156;2023-04-05T11:03:50;11.30;58.10
1626;DHT22;806;48.770;9.156;2023-04-05T11:06:21;11.40;60.60
1626;DHT22;806;48.770;9.156;2023-04-05T11:08:54;11.20;57.50
1626;DHT22;806;48.770;9.156;2023-04-05T11:11:22;10.80;57.90
1626;DHT22;806;48.770;9.156;2023-04-05T11:13:53;10.60;60.10
1626;DHT22;806;48.770;9.156;2023-04-05T11:16:22;11.00;61.50
1626;DHT22;806;48.770;9.156;2023-04-05T11:18:50;11.50;57.60
1626;DHT22;806;48.770;9.156;2023-04-05T11:21:22;11.70;55.70
1626;DHT22;806;48.770;9.156;2023-04-05T11:24:00;11.30;55.70
1626;DHT22;806;48.770;9.156;2023-04-05T11:26:32;11.30;57.20
1626;DHT22;806;48.770;9.156;2023-04-05T11:29:00;11.40;55.50
1626;DHT22;806;48.770;9.156;2023-04-05T11:31:27;11.70;55.10
1626;DHT22;806;48.770;9.156;2023-04-05T11:33:56;11.80;55.50
1626;DHT22;806;48.770;9.156;2023-04-05T11:36:35;11.90;53.80
1626;DHT22;806;48.770;9.156;2023-04-05T11:39:27;12.00;54.10
1626;DHT22;806;48.770;9.156;2023-04-05T11:41:58;11.90;52.60
1626;DHT22;806;48.770;9.156;2023-04-05T11:44:27;11.60;54.00
1626;DHT22;806;48.770;9.156;2023-04-05T11:49:41;11.40;54.00
1626;DHT22;806;48.770;9.156;2023-04-05T11:52:16;12.00;53.70
1626;DHT22;806;48.770;9.156;2023-04-05T11:54:43;12.40;53.00
1626;DHT22;806;48.770;9.156;2023-04-05T11:57:17;12.70;50.30
1626;DHT22;806;48.770;9.156;2023-04-05T11:59:48;12.50;50.00
1626;DHT22;806;48.770;9.156;2023-04-05T12:02:16;12.20;48.90
1626;DHT22;806;48.770;9.156;2023-04-05T12:04:43;12.10;52.40
1626;DHT22;806;48.770;9.156;2023-04-05T12:07:14;12.50;51.30
1626;DHT22;806;48.770;9.156;2023-04-05T12:10:02;13.00;48.40
1626;DHT22;806;48.770;9.156;2023-04-05T12:12:33;13.40;49.20
1626;DHT22;806;48.770;9.156;2023-04-05T12:15:04;13.20;49.40
1626;DHT22;806;48.770;9.156;2023-04-05T12:17:39;13.20;48.60
1626;DHT22;806;48.770;9.156;2023-04-05T12:20:08;13.00;47.50
1626;DHT22;806;48.770;9.156;2023-04-05T12:22:36;12.30;47.40
1626;DHT22;806;48.770;9.156;2023-04-05T12:25:04;11.80;48.70
1626;DHT22;806;48.770;9.156;2023-04-05T12:27:31;11.50;48.60
1626;DHT22;806;48.770;9.156;2023-04-05T12:30:14;11.80;51.10
1626;DHT22;806;48.770;9.156;2023-04-05T12:32:43;12.60;48.70
1626;DHT22;806;48.770;9.156;2023-04-05T12:35:11;12.90;48.30
1626;DHT22;806;48.770;9.156;2023-04-05T12:37:39;13.10;47.30
1626;DHT22;806;48.770;9.156;2023-04-05T12:40:10;13.00;48.30
1626;DHT22;806;48.770;9.156;2023-04-05T12:42:38;13.00;47.50
1626;DHT22;806;48.770;9.156;2023-04-05T12:45:12;13.50;46.90
1626;DHT22;806;48.770;9.156;2023-04-05T12:47:51;13.50;45.70
1626;DHT22;806;48.770;9.156;2023-04-05T12:50:24;13.40;45.50
1626;DHT22;806;48.770;9.156;2023-04-05T12:53:46;13.40;46.60
1626;DHT22;806;48.770;9.156;2023-04-05T12:55:47;13.60;45.80
1626;DHT22;806;48.770;9.156;2023-04-05T12:58:18;13.60;45.60
1626;DHT22;806;48.770;9.156;2023-04-05T13:00:47;13.60;45.50
1626;DHT22;806;48.770;9.156;2023-04-05T13:03:15;13.00;44.70
1626;DHT22;806;48.770;9.156;2023-04-05T13:05:45;12.60;45.60
1626;DHT22;806;48.770;9.156;2023-04-05T13:08:13;12.40;46.90
1626;DHT22;806;48.770;9.156;2023-04-05T13:10:43;12.50;46.50
1626;DHT22;806;48.770;9.156;2023-04-05T13:13:10;12.50;44.30
1626;DHT22;806;48.770;9.156;2023-04-05T13:15:38;12.50;45.40
1626;DHT22;806;48.770;9.156;2023-04-05T13:18:06;12.70;45.50
1626;DHT22;806;48.770;9.156;2023-04-05T13:20:34;12.70;44.00
1626;DHT22;806;48.770;9.156;2023-04-05T13:23:01;12.90;44.40
1626;DHT22;806;48.770;9.156;2023-04-05T13:25:28;12.40;44.20
1626;DHT22;806;48.770;9.156;2023-04-05T13:27:55;12.10;44.90
1626;DHT22;806;48.770;9.156;2023-04-05T13:30:22;12.40;46.60
1626;DHT22;806;48.770;9.156;2023-04-05T13:32:49;12.60;44.80
1626;DHT22;806;48.770;9.156;2023-04-05T13:35:18;12.90;45.50
1626;DHT22;806;48.770;9.156;2023-04-05T13:37:45;12.60;44.20
1626;DHT22;806;48.770;9.156;2023-04-05T13:40:14;12.60;44.90
1626;DHT22;806;48.770;9.156;2023-04-05T13:42:42;12.40;45.50
1626;DHT22;806;48.770;9.156;2023-04-05T13:45:10;12.70;46.50
1626;DHT22;806;48.770;9.156;2023-04-05T13:47:37;13.00;44.70
1626;DHT22;806;48.770;9.156;2023-04-05T13:50:05;12.60;44.50
1626;DHT22;806;48.770;9.156;2023-04-05T13:52:34;12.30;44.40
1626;DHT22;806;48.770;9.156;2023-04-05T13:55:02;12.30;44.40
1626;DHT22;806;48.770;9.156;2023-04-05T13:57:29;12.60;45.80
1626;DHT22;806;48.770;9.156;2023-04-05T13:59:57;12.70;44.50
1626;DHT22;806;48.770;9.156;2023-04-05T14:02:24;12.60;45.20
1626;DHT22;806;48.770;9.156;2023-04-05T14:04:52;12.60;45.30
1626;DHT22;806;48.770;9.156;2023-04-05T14:07:19;12.60;44.40
1626;DHT22;806;48.770;9.156;2023-04-05T14:09:48;12.80;45.40
1626;DHT22;806;48.770;9.156;2023-04-05T14:12:15;12.30;43.60
1626;DHT22;806;48.770;9.156;2023-04-05T14:14:43;11.80;45.20
1626;DHT22;806;48.770;9.156;2023-04-05T14:17:11;11.90;45.90
1626;DHT22;806;48.770;9.156;2023-04-05T14:19:38;12.00;46.00
1626;DHT22;806;48.770;9.156;2023-04-05T14:22:05;12.10;45.70
1626;DHT22;806;48.770;9.156;2023-04-05T14:24:33;12.00;44.80
1626;DHT22;806;48.770;9.156;2023-04-05T14:27:02;11.90;48.80
1626;DHT22;806;48.770;9.156;2023-04-05T14:29:29;12.20;47.30
1626;DHT22;806;48.770;9.156;2023-04-05T14:31:56;12.30;48.80
1626;DHT22;806;48.770;9.156;2023-04-05T14:34:23;12.40;48.00
1626;DHT22;806;48.770;9.156;2023-04-05T14:36:50;12.40;45.60
1626;DHT22;806;48.770;9.156;2023-04-05T14:39:18;12.30;45.10
1626;DHT22;806;48.770;9.156;2023-04-05T14:41:45;12.10;46.70
1626;DHT22;806;48.770;9.156;2023-04-05T14:44:18;12.00;45.70
1626;DHT22;806;48.770;9.156;2023-04-05T14:46:45;11.80;46.10
1626;DHT22;806;48.770;9.156;2023-04-05T14:49:14;11.60;45.80
1626;DHT22;806;48.770;9.156;2023-04-05T14:51:41;11.60;47.50
1626;DHT22;806;48.770;9.156;2023-04-05T14:54:09;11.50;46.70
1626;DHT22;806;48.770;9.156;2023-04-05T14:56:36;11.50;47.40
1626;DHT22;806;48.770;9.156;2023-04-05T14:59:03;11.20;45.20
1626;DHT22;806;48.770;9.156;2023-04-05T15:01:32;11.40;48.70
1626;DHT22;806;48.770;9.156;2023-04-05T15:07:23;11.70;45.90
1626;DHT22;806;48.770;9.156;2023-04-05T15:09:52;11.50;46.20
1626;DHT22;806;48.770;9.156;2023-04-05T15:12:19;11.50;48.30
1626;DHT22;806;48.770;9.156;2023-04-05T15:15:04;11.60;47.20
1626;DHT22;806;48.770;9.156;2023-04-05T15:18:07;11.60;46.80
1626;DHT22;806;48.770;9.156;2023-04-05T15:20:41;11.60;46.50
1626;DHT22;806;48.770;9.156;2023-04-05T15:23:20;11.40;45.90
1626;DHT22;806;48.770;9.156;2023-04-05T15:25:53;11.30;45.50
1626;DHT22;806;48.770;9.156;2023-04-05T15:28:21;11.20;46.10
1626;DHT22;806;48.770;9.156;2023-04-05T15:30:58;11.30;47.80
1626;DHT22;806;48.770;9.156;2023-04-05T15:33:28;11.20;47.20
1626;DHT22;806;48.770;9.156;2023-04-05T15:39:20;11.40;45.30
1626;DHT22;806;48.770;9.156;2023-04-05T15:41:51;11.40;47.60
1626;DHT22;806;48.770;9.156;2023-04-05T15:44:18;11.40;46.20
1626;DHT22;806;48.770;9.156;2023-04-05T15:46:45;11.40;44.40
1626;DHT22;806;48.770;9.156;2023-04-05T15:49:14;11.20;45.30
1626;DHT22;806;48.770;9.156;2023-04-05T15:51:41;11.10;45.90
1626;DHT22;806;48.770;9.156;2023-04-05T15:54:09;11.20;46.10
1626;DHT22;806;48.770;9.156;2023-04-05T15:56:41;11.20;44.70
1626;DHT22;806;48.770;9.156;2023-04-05T15:59:08;11.10;46.00
1626;DHT22;806;48.770;9.156;2023-04-05T16:01:36;11.00;45.20
1626;DHT22;806;48.770;9.156;2023-04-05T16:04:03;10.80;45.90
1626;DHT22;806;48.770;9.156;2023-04-05T16:06:32;10.70;45.20
1626;DHT22;806;48.770;9.156;2023-04-05T16:08:59;10.60;46.10
1626;DHT22;806;48.770;9.156;2023-04-05T16:11:26;10.50;45.80
1626;DHT22;806;48.770;9.156;2023-04-05T16:13:53;10.50;45.70
1626;DHT22;806;48.770;9.156;2023-04-05T16:16:21;10.50;46.80
1626;DHT22;806;48.770;9.156;2023-04-05T16:18:49;10.40;46.70
1626;DHT22;806;48.770;9.156;2023-04-05T16:21:16;10.40;47.00
1626;DHT22;806;48.770;9.156;2023-04-05T16:23:45;10.30;47.30
1626;DHT22;806;48.770;9.156;2023-04-05T16:26:13;10.20;47.60
1626;DHT22;806;48.770;9.156;2023-04-05T16:28:40;10.20;47.60
1626;DHT22;806;48.770;9.156;2023-04-05T16:31:07;10.20;46.70
1626;DHT22;806;48.770;9.156;2023-04-05T16:33:34;10.20;47.10
1626;DHT22;806;48.770;9.156;2023-04-05T16:36:02;10.10;46.70
1626;DHT22;806;48.770;9.156;2023-04-05T16:38:29;10.10;48.00
1626;DHT22;806;48.770;9.156;2023-04-05T16:40:58;10.00;47.30
1626;DHT22;806;48.770;9.156;2023-04-05T16:43:26;10.00;47.20
1626;DHT22;806;48.770;9.156;2023-04-05T16:45:55;9.90;47.80
1626;DHT22;806;48.770;9.156;2023-04-05T16:48:22;9.80;48.80
1626;DHT22;806;48.770;9.156;2023-04-05T16:50:50;9.80;49.30
1626;DHT22;806;48.770;9.156;2023-04-05T16:53:17;9.80;48.10
1626;DHT22;806;48.770;9.156;2023-04-05T16:55:44;9.80;48.70